sensor_id;sensor_type;location;lat;lon;timestamp;pressure;altitude;pressure_sealevel;temperature;humidity
82474;BME280;72350;53.232;6.556;2024-03-02T00:01:56;99916.22;;;7.54;72.77
82474;BME280;72350;53.232;6.556;2024-03-02T00:04:24;99920.69;;;7.55;72.33
82474;BME280;72350;53.232;6.556;2024-03-02T00:06:54;99916.16;;;7.62;72.44
82474;BME280;72350;53.232;6.556;2024-03-02T00:09:22;99923.91;;;7.59;72.62
82474;BME280;72350;53.232;6.556;2024-03-02T00:11:50;99918.81;;;7.56;72.64
82474;BME280;72350;53.232;6.556;2024-03-02T00:14:18;99910.38;;;7.57;72.48
82474;BME280;72350;53.232;6.556;2024-03-02T00:16:46;99917.28;;;7.53;72.61
82474;BME280;72350;53.232;6.556;2024-03-02T00:19:14;99923.06;;;7.35;72.81
82474;BME280;72350;53.232;6.556;2024-03-02T00:21:42;99920.63;;;7.40;73.58
82474;BME280;72350;53.232;6.556;2024-03-02T00:24:20;99926.50;;;7.37;73.08
82474;BME280;72350;53.232;6.556;2024-03-02T00:26:49;99909.22;;;7.37;73.43
82474;BME280;72350;53.232;6.556;2024-03-02T00:29:17;99907.31;;;7.37;73.41
82474;BME280;72350;53.232;6.556;2024-03-02T00:31:46;99915.00;;;7.42;73.89
82474;BME280;72350;53.232;6.556;2024-03-02T00:34:15;99912.97;;;7.36;73.26
82474;BME280;72350;53.232;6.556;2024-03-02T00:36:45;99908.03;;;7.31;73.34
82474;BME280;72350;53.232;6.556;2024-03-02T00:39:14;99902.56;;;7.31;74.14
82474;BME280;72350;53.232;6.556;2024-03-02T00:41:43;99899.94;;;7.38;73.96
82474;BME280;72350;53.232;6.556;2024-03-02T00:44:12;99907.94;;;7.25;73.86
82474;BME280;72350;53.232;6.556;2024-03-02T00:46:41;99903.78;;;7.29;74.49
82474;BME280;72350;53.232;6.556;2024-03-02T00:49:14;99911.16;;;7.28;74.25
82474;BME280;72350;53.232;6.556;2024-03-02T00:51:46;99906.03;;;7.25;74.26
82474;BME280;72350;53.232;6.556;2024-03-02T00:54:19;99905.13;;;7.33;74.35
82474;BME280;72350;53.232;6.556;2024-03-02T00:56:48;99907.13;;;7.39;74.07
82474;BME280;72350;53.232;6.556;2024-03-02T00:59:16;99890.22;;;7.35;74.33
82474;BME280;72350;53.232;6.556;2024-03-02T01:01:44;99908.34;;;7.36;73.87
82474;BME280;72350;53.232;6.556;2024-03-02T01:04:12;99904.06;;;7.34;73.79
82474;BME280;72350;53.232;6.556;2024-03-02T01:06:40;99904.06;;;7.34;73.83
82474;BME280;72350;53.232;6.556;2024-03-02T01:09:09;99899.94;;;7.38;74.21
82474;BME280;72350;53.232;6.556;2024-03-02T01:11:40;99890.06;;;7.29;74.67
82474;BME280;72350;53.232;6.556;2024-03-02T01:14:07;99878.47;;;7.27;74.61
82474;BME280;72350;53.232;6.556;2024-03-02T01:16:35;99883.97;;;7.27;75.08
82474;BME280;72350;53.232;6.556;2024-03-02T01:19:03;99881.00;;;7.28;74.50
82474;BME280;72350;53.232;6.556;2024-03-02T01:21:31;99870.59;;;7.23;75.12
82474;BME280;72350;53.232;6.556;2024-03-02T01:23:59;99873.72;;;7.20;74.77
82474;BME280;72350;53.232;6.556;2024-03-02T01:26:27;99868.75;;;7.24;74.76
82474;BME280;72350;53.232;6.556;2024-03-02T01:28:56;99871.34;;;7.17;75.02
82474;BME280;72350;53.232;6.556;2024-03-02T01:31:24;99850.38;;;7.10;75.52
82474;BME280;72350;53.232;6.556;2024-03-02T01:33:52;99860.41;;;7.17;75.74
82474;BME280;72350;53.232;6.556;2024-03-02T01:36:20;99850.38;;;7.10;75.88
82474;BME280;72350;53.232;6.556;2024-03-02T01:38:48;99870.38;;;7.10;75.58
82474;BME280;72350;53.232;6.556;2024-03-02T01:41:16;99867.94;;;7.15;75.94
82474;BME280;72350;53.232;6.556;2024-03-02T01:43:44;99864.34;;;7.15;75.95
82474;BME280;72350;53.232;6.556;2024-03-02T01:46:13;99865.88;;;7.17;76.24
82474;BME280;72350;53.232;6.556;2024-03-02T01:48:41;99862.59;;;7.22;75.30
82474;BME280;72350;53.232;6.556;2024-03-02T01:51:09;99861.38;;;7.25;75.63
82474;BME280;72350;53.232;6.556;2024-03-02T01:53:37;99855.06;;;7.24;75.41
82474;BME280;72350;53.232;6.556;2024-03-02T01:56:05;99857.28;;;7.20;75.99
82474;BME280;72350;53.232;6.556;2024-03-02T01:58:33;99852.47;;;7.22;75.57
82474;BME280;72350;53.232;6.556;2024-03-02T02:01:01;99854.84;;;7.26;75.50
82474;BME280;72350;53.232;6.556;2024-03-02T02:03:30;99856.56;;;7.27;75.80
82474;BME280;72350;53.232;6.556;2024-03-02T02:05:58;99859.31;;;7.27;76.04
82474;BME280;72350;53.232;6.556;2024-03-02T02:08:26;99852.97;;;7.26;75.75
82474;BME280;72350;53.232;6.556;2024-03-02T02:10:54;99847.31;;;7.28;75.88
82474;BME280;72350;53.232;6.556;2024-03-02T02:13:22;99842.69;;;7.28;75.70
82474;BME280;72350;53.232;6.556;2024-03-02T02:15:50;99839.75;;;7.30;75.51
82474;BME280;72350;53.232;6.556;2024-03-02T02:18:19;99839.25;;;7.26;75.85
82474;BME280;72350;53.232;6.556;2024-03-02T02:20:49;99836.19;;;7.29;75.92
82474;BME280;72350;53.232;6.556;2024-03-02T02:23:18;99846.25;;;7.29;75.78
82474;BME280;72350;53.232;6.556;2024-03-02T02:25:46;99835.13;;;7.30;75.89
82474;BME280;72350;53.232;6.556;2024-03-02T02:28:14;99831.94;;;7.27;75.73
82474;BME280;72350;53.232;6.556;2024-03-02T02:30:41;99846.94;;;7.31;75.44
82474;BME280;72350;53.232;6.556;2024-03-02T02:33:09;99849.78;;;7.37;75.41
82474;BME280;72350;53.232;6.556;2024-03-02T02:35:37;99843.81;;;7.34;75.36
82474;BME280;72350;53.232;6.556;2024-03-02T02:38:05;99847.44;;;7.34;75.07
82474;BME280;72350;53.232;6.556;2024-03-02T02:40:35;99836.19;;;7.44;75.61
82474;BME280;72350;53.232;6.556;2024-03-02T02:43:03;99836.78;;;7.39;75.27
82474;BME280;72350;53.232;6.556;2024-03-02T02:45:31;99834.22;;;7.38;75.21
82474;BME280;72350;53.232;6.556;2024-03-02T02:47:58;99839.69;;;7.38;74.91
82474;BME280;72350;53.232;6.556;2024-03-02T02:50:28;99842.72;;;7.43;75.05
82474;BME280;72350;53.232;6.556;2024-03-02T02:52:56;99836.69;;;7.48;74.94
82474;BME280;72350;53.232;6.556;2024-03-02T02:55:24;99845.56;;;7.50;74.21
82474;BME280;72350;53.232;6.556;2024-03-02T02:57:53;99838.84;;;7.52;73.99
82474;BME280;72350;53.232;6.556;2024-03-02T03:00:21;99842.09;;;7.56;74.56
82474;BME280;72350;53.232;6.556;2024-03-02T03:02:49;99838.97;;;7.59;74.10
82474;BME280;72350;53.232;6.556;2024-03-02T03:05:18;99837.91;;;7.60;74.00
82474;BME280;72350;53.232;6.556;2024-03-02T03:07:46;99844.72;;;7.64;73.26
82474;BME280;72350;53.232;6.556;2024-03-02T03:10:16;99832.56;;;7.66;73.62
82474;BME280;72350;53.232;6.556;2024-03-02T03:12:45;99833.50;;;7.74;73.08
82474;BME280;72350;53.232;6.556;2024-03-02T03:15:15;99837.84;;;7.83;73.04
82474;BME280;72350;53.232;6.556;2024-03-02T03:17:43;99833.69;;;7.87;72.78
82474;BME280;72350;53.232;6.556;2024-03-02T03:20:13;99835.38;;;7.88;72.57
82474;BME280;72350;53.232;6.556;2024-03-02T03:22:42;99835.28;;;7.96;72.53
82474;BME280;72350;53.232;6.556;2024-03-02T03:25:10;99835.88;;;7.92;72.07
82474;BME280;72350;53.232;6.556;2024-03-02T03:27:38;99829.16;;;7.94;72.06
82474;BME280;72350;53.232;6.556;2024-03-02T03:30:06;99836.34;;;7.95;72.04
82474;BME280;72350;53.232;6.556;2024-03-02T03:32:36;99837.28;;;8.02;71.89
82474;BME280;72350;53.232;6.556;2024-03-02T03:35:05;99827.16;;;8.03;72.15
82474;BME280;72350;53.232;6.556;2024-03-02T03:37:33;99838.13;;;8.03;71.65
82474;BME280;72350;53.232;6.556;2024-03-02T03:40:02;99836.63;;;8.00;71.99
82474;BME280;72350;53.232;6.556;2024-03-02T03:42:34;99834.44;;;7.96;72.04
82474;BME280;72350;53.232;6.556;2024-03-02T03:45:02;99828.13;;;7.95;72.11
82474;BME280;72350;53.232;6.556;2024-03-02T03:47:31;99837.69;;;7.99;72.08
82474;BME280;72350;53.232;6.556;2024-03-02T03:50:00;99827.94;;;7.97;71.61
82474;BME280;72350;53.232;6.556;2024-03-02T03:52:31;99825.38;;;7.95;72.05
82474;BME280;72350;53.232;6.556;2024-03-02T03:54:59;99826.16;;;7.89;72.17
82474;BME280;72350;53.232;6.556;2024-03-02T03:57:27;99817.63;;;7.84;72.78
82474;BME280;72350;53.232;6.556;2024-03-02T03:59:55;99825.28;;;7.88;72.66
82474;BME280;72350;53.232;6.556;2024-03-02T04:02:23;99812.53;;;7.81;72.83
82474;BME280;72350;53.232;6.556;2024-03-02T04:04:52;99816.31;;;7.80;72.76
82474;BME280;72350;53.232;6.556;2024-03-02T04:07:21;99829.34;;;7.78;73.12
82474;BME280;72350;53.232;6.556;2024-03-02T04:09:48;99835.69;;;7.78;73.32
82474;BME280;72350;53.232;6.556;2024-03-02T04:12:16;99835.31;;;7.81;73.07
82474;BME280;72350;53.232;6.556;2024-03-02T04:14:44;99835.59;;;7.86;73.13
82474;BME280;72350;53.232;6.556;2024-03-02T04:17:12;99833.41;;;7.82;73.32
82474;BME280;72350;53.232;6.556;2024-03-02T04:19:40;99835.69;;;7.78;72.92
82474;BME280;72350;53.232;6.556;2024-03-02T04:22:07;99846.44;;;7.80;73.16
82474;BME280;72350;53.232;6.556;2024-03-02T04:24:48;99835.19;;;7.75;73.02
82474;BME280;72350;53.232;6.556;2024-03-02T04:27:16;99842.41;;;7.76;73.68
82474;BME280;72350;53.232;6.556;2024-03-02T04:29:44;99843.81;;;7.72;73.49
82474;BME280;72350;53.232;6.556;2024-03-02T04:32:11;99842.56;;;7.74;73.70
82474;BME280;72350;53.232;6.556;2024-03-02T04:34:39;99843.50;;;7.66;74.01
82474;BME280;72350;53.232;6.556;2024-03-02T04:37:07;99840.38;;;7.70;74.07
82474;BME280;72350;53.232;6.556;2024-03-02T04:39:35;99845.41;;;7.66;74.15
82474;BME280;72350;53.232;6.556;2024-03-02T04:42:05;99847.31;;;7.65;73.95
82474;BME280;72350;53.232;6.556;2024-03-02T04:44:33;99850.97;;;7.73;74.08
82474;BME280;72350;53.232;6.556;2024-03-02T04:47:01;99842.56;;;7.74;74.26
82474;BME280;72350;53.232;6.556;2024-03-02T04:49:29;99857.97;;;7.75;73.73
82474;BME280;72350;53.232;6.556;2024-03-02T04:51:57;99863.66;;;7.74;73.84
82474;BME280;72350;53.232;6.556;2024-03-02T04:54:25;99871.78;;;7.82;73.28
82474;BME280;72350;53.232;6.556;2024-03-02T04:56:53;99866.13;;;7.83;73.78
82474;BME280;72350;53.232;6.556;2024-03-02T04:59:22;99872.47;;;7.84;73.53
82474;BME280;72350;53.232;6.556;2024-03-02T05:01:50;99866.47;;;7.80;73.42
82474;BME280;72350;53.232;6.556;2024-03-02T05:04:18;99865.94;;;7.85;73.49
82474;BME280;72350;53.232;6.556;2024-03-02T05:06:46;99861.50;;;7.84;73.23
82474;BME280;72350;53.232;6.556;2024-03-02T05:09:19;99869.63;;;7.92;73.48
82474;BME280;72350;53.232;6.556;2024-03-02T05:11:47;99881.81;;;7.90;73.33
82474;BME280;72350;53.232;6.556;2024-03-02T05:14:37;99895.22;;;7.84;73.93
82474;BME280;72350;53.232;6.556;2024-03-02T05:17:06;99880.97;;;7.89;74.06
82474;BME280;72350;53.232;6.556;2024-03-02T05:19:33;99878.97;;;7.98;73.70
82474;BME280;72350;53.232;6.556;2024-03-02T05:22:01;99893.63;;;7.90;73.06
82474;BME280;72350;53.232;6.556;2024-03-02T05:24:29;99900.38;;;8.02;73.35
82474;BME280;72350;53.232;6.556;2024-03-02T05:26:57;99897.03;;;7.92;73.18
82474;BME280;72350;53.232;6.556;2024-03-02T05:29:26;99899.56;;;7.94;73.30
82474;BME280;72350;53.232;6.556;2024-03-02T05:31:55;99900.34;;;7.87;73.84
82474;BME280;72350;53.232;6.556;2024-03-02T05:34:23;99904.69;;;7.82;73.46
82474;BME280;72350;53.232;6.556;2024-03-02T05:36:51;99905.53;;;7.82;73.88
82474;BME280;72350;53.232;6.556;2024-03-02T05:39:19;99906.03;;;7.86;73.89
82474;BME280;72350;53.232;6.556;2024-03-02T05:41:47;99908.78;;;7.86;74.39
82474;BME280;72350;53.232;6.556;2024-03-02T05:44:15;99911.22;;;7.81;74.12
82474;BME280;72350;53.232;6.556;2024-03-02T05:46:42;99910.84;;;7.84;74.19
82474;BME280;72350;53.232;6.556;2024-03-02T05:49:12;99916.88;;;7.79;74.24
82474;BME280;72350;53.232;6.556;2024-03-02T05:51:40;99909.88;;;7.77;74.41
82474;BME280;72350;53.232;6.556;2024-03-02T05:54:08;99912.78;;;7.75;74.22
82474;BME280;72350;53.232;6.556;2024-03-02T05:56:36;99921.00;;;7.75;74.63
82474;BME280;72350;53.232;6.556;2024-03-02T05:59:04;99927.16;;;7.77;74.62
82474;BME280;72350;53.232;6.556;2024-03-02T06:01:39;99928.31;;;7.83;74.72
82474;BME280;72350;53.232;6.556;2024-03-02T06:04:08;99921.59;;;7.85;74.66
82474;BME280;72350;53.232;6.556;2024-03-02T06:06:39;99932.00;;;7.90;74.88
82474;BME280;72350;53.232;6.556;2024-03-02T06:09:08;99944.78;;;7.98;74.88
82474;BME280;72350;53.232;6.556;2024-03-02T06:11:40;99948.19;;;8.00;74.70
82474;BME280;72350;53.232;6.556;2024-03-02T06:14:08;99952.75;;;8.07;74.45
82474;BME280;72350;53.232;6.556;2024-03-02T06:16:36;99958.25;;;8.07;74.21
82474;BME280;72350;53.232;6.556;2024-03-02T06:19:04;99954.66;;;8.07;74.49
82474;BME280;72350;53.232;6.556;2024-03-02T06:21:33;99953.59;;;8.08;74.33
82474;BME280;72350;53.232;6.556;2024-03-02T06:24:03;99956.81;;;8.12;74.67
82474;BME280;72350;53.232;6.556;2024-03-02T06:26:31;99964.44;;;8.01;74.34
82474;BME280;72350;53.232;6.556;2024-03-02T06:28:58;99962.59;;;8.02;74.98
82474;BME280;72350;53.232;6.556;2024-03-02T06:31:28;99969.38;;;8.06;74.69
82474;BME280;72350;53.232;6.556;2024-03-02T06:33:56;99970.06;;;8.08;74.52
82474;BME280;72350;53.232;6.556;2024-03-02T06:36:24;99976.88;;;8.12;74.54
82474;BME280;72350;53.232;6.556;2024-03-02T06:38:52;99981.41;;;8.05;74.65
82474;BME280;72350;53.232;6.556;2024-03-02T06:41:21;99984.81;;;8.07;74.46
82474;BME280;72350;53.232;6.556;2024-03-02T06:43:49;99987.19;;;8.10;74.77
82474;BME280;72350;53.232;6.556;2024-03-02T06:46:20;99985.56;;;8.16;74.82
82474;BME280;72350;53.232;6.556;2024-03-02T06:48:48;99989.66;;;8.20;74.61
82474;BME280;72350;53.232;6.556;2024-03-02T06:51:16;99988.59;;;8.21;74.39
82474;BME280;72350;53.232;6.556;2024-03-02T06:53:44;99992.31;;;8.28;74.46
82474;BME280;72350;53.232;6.556;2024-03-02T06:56:13;100003.38;;;8.35;73.98
82474;BME280;72350;53.232;6.556;2024-03-02T06:58:42;99998.31;;;8.46;73.81
82474;BME280;72350;53.232;6.556;2024-03-02T07:01:10;100003.22;;;8.66;73.08
82474;BME280;72350;53.232;6.556;2024-03-02T07:03:38;99996.50;;;8.98;72.12
82474;BME280;72350;53.232;6.556;2024-03-02T07:06:06;100007.88;;;8.95;71.15
82474;BME280;72350;53.232;6.556;2024-03-02T07:08:34;100002.97;;;9.27;70.95
82474;BME280;72350;53.232;6.556;2024-03-02T07:11:02;100008.47;;;9.48;70.73
82474;BME280;72350;53.232;6.556;2024-03-02T07:13:31;100007.81;;;9.46;69.90
82474;BME280;72350;53.232;6.556;2024-03-02T07:16:00;100009.28;;;9.42;69.85
82474;BME280;72350;53.232;6.556;2024-03-02T07:18:54;100019.47;;;9.12;69.97
82474;BME280;72350;53.232;6.556;2024-03-02T07:21:23;100025.75;;;9.06;70.22
82474;BME280;72350;53.232;6.556;2024-03-02T07:23:51;100021.59;;;8.95;70.33
82474;BME280;72350;53.232;6.556;2024-03-02T07:26:19;100029.75;;;8.88;71.17
82474;BME280;72350;53.232;6.556;2024-03-02T07:28:50;100026.81;;;8.75;72.03
82474;BME280;72350;53.232;6.556;2024-03-02T07:31:19;100034.75;;;8.70;72.07
82474;BME280;72350;53.232;6.556;2024-03-02T07:33:47;100037.78;;;8.75;72.50
82474;BME280;72350;53.232;6.556;2024-03-02T07:36:15;100043.66;;;8.72;72.42
82474;BME280;72350;53.232;6.556;2024-03-02T07:38:43;100048.78;;;8.75;72.57
82474;BME280;72350;53.232;6.556;2024-03-02T07:41:12;100050.19;;;8.71;73.31
82474;BME280;72350;53.232;6.556;2024-03-02T07:43:40;100053.13;;;8.69;73.35
82474;BME280;72350;53.232;6.556;2024-03-02T07:46:08;100044.81;;;8.78;73.68
82474;BME280;72350;53.232;6.556;2024-03-02T07:48:38;100050.88;;;8.88;72.84
82474;BME280;72350;53.232;6.556;2024-03-02T07:51:06;100052.44;;;9.12;72.48
82474;BME280;72350;53.232;6.556;2024-03-02T07:53:34;100051.38;;;9.28;71.82
82474;BME280;72350;53.232;6.556;2024-03-02T07:56:03;100055.34;;;9.61;70.90
82474;BME280;72350;53.232;6.556;2024-03-02T07:58:32;100056.59;;;9.80;70.20
82474;BME280;72350;53.232;6.556;2024-03-02T08:01:02;100068.28;;;10.04;69.39
82474;BME280;72350;53.232;6.556;2024-03-02T08:03:30;100067.94;;;10.14;68.04
82474;BME280;72350;53.232;6.556;2024-03-02T08:06:00;100061.56;;;10.28;67.19
82474;BME280;72350;53.232;6.556;2024-03-02T08:08:28;100062.09;;;10.45;66.66
82474;BME280;72350;53.232;6.556;2024-03-02T08:10:56;100062.25;;;10.37;65.66
82474;BME280;72350;53.232;6.556;2024-03-02T08:13:27;100061.31;;;10.51;65.45
82474;BME280;72350;53.232;6.556;2024-03-02T08:15:55;100062.81;;;10.54;65.20
82474;BME280;72350;53.232;6.556;2024-03-02T08:18:23;100062.16;;;10.80;64.99
82474;BME280;72350;53.232;6.556;2024-03-02T08:20:51;100068.78;;;10.92;65.00
82474;BME280;72350;53.232;6.556;2024-03-02T08:23:21;100069.91;;;10.98;64.12
82474;BME280;72350;53.232;6.556;2024-03-02T08:25:49;100082.25;;;11.08;63.37
82474;BME280;72350;53.232;6.556;2024-03-02T08:28:17;100092.50;;;11.21;63.49
82474;BME280;72350;53.232;6.556;2024-03-02T08:30:46;100088.06;;;11.33;62.79
82474;BME280;72350;53.232;6.556;2024-03-02T08:33:14;100085.72;;;11.30;62.40
82474;BME280;72350;53.232;6.556;2024-03-02T08:35:43;100087.78;;;11.70;62.04
82474;BME280;72350;53.232;6.556;2024-03-02T08:38:11;100085.88;;;11.64;60.89
82474;BME280;72350;53.232;6.556;2024-03-02T08:40:40;100100.88;;;11.48;61.63
82474;BME280;72350;53.232;6.556;2024-03-02T08:43:08;100106.53;;;11.33;61.79
82474;BME280;72350;53.232;6.556;2024-03-02T08:45:36;100100.81;;;11.34;62.69
82474;BME280;72350;53.232;6.556;2024-03-02T08:48:07;100106.19;;;11.08;62.61
82474;BME280;72350;53.232;6.556;2024-03-02T08:50:35;100103.44;;;11.08;63.76
82474;BME280;72350;53.232;6.556;2024-03-02T08:53:04;100109.56;;;11.03;63.50
82474;BME280;72350;53.232;6.556;2024-03-02T08:55:32;100108.09;;;11.07;63.72
82474;BME280;72350;53.232;6.556;2024-03-02T08:58:01;100110.75;;;10.66;63.67
82474;BME280;72350;53.232;6.556;2024-03-02T09:00:30;100111.47;;;10.46;63.97
82474;BME280;72350;53.232;6.556;2024-03-02T09:02:58;100109.19;;;10.28;64.98
82474;BME280;72350;53.232;6.556;2024-03-02T09:05:26;100117.22;;;10.52;65.94
82474;BME280;72350;53.232;6.556;2024-03-02T09:07:55;100111.88;;;10.43;65.20
82474;BME280;72350;53.232;6.556;2024-03-02T09:10:23;100114.94;;;10.34;64.22
82474;BME280;72350;53.232;6.556;2024-03-02T09:12:54;100111.03;;;10.43;65.03
82474;BME280;72350;53.232;6.556;2024-03-02T09:15:23;100105.88;;;10.40;65.15
82474;BME280;72350;53.232;6.556;2024-03-02T09:17:51;100111.75;;;10.58;64.41
82474;BME280;72350;53.232;6.556;2024-03-02T09:20:20;100104.06;;;10.47;63.71
82474;BME280;72350;53.232;6.556;2024-03-02T09:22:48;100109.22;;;10.57;63.90
82474;BME280;72350;53.232;6.556;2024-03-02T09:25:16;100112.13;;;10.48;64.27
82474;BME280;72350;53.232;6.556;2024-03-02T09:27:44;100104.47;;;10.44;63.66
82474;BME280;72350;53.232;6.556;2024-03-02T09:30:13;100111.31;;;10.55;64.69
82474;BME280;72350;53.232;6.556;2024-03-02T09:32:43;100108.38;;;10.35;64.23
82474;BME280;72350;53.232;6.556;2024-03-02T09:35:12;100113.38;;;10.46;64.18
82474;BME280;72350;53.232;6.556;2024-03-02T09:37:40;100104.97;;;10.82;64.52
82474;BME280;72350;53.232;6.556;2024-03-02T09:40:10;100106.75;;;10.97;63.62
82474;BME280;72350;53.232;6.556;2024-03-02T09:42:38;100116.69;;;10.91;63.56
82474;BME280;72350;53.232;6.556;2024-03-02T09:45:06;100112.00;;;10.91;62.31
82474;BME280;72350;53.232;6.556;2024-03-02T09:47:35;100123.09;;;10.98;61.94
82474;BME280;72350;53.232;6.556;2024-03-02T09:50:06;100117.06;;;11.23;62.06
82474;BME280;72350;53.232;6.556;2024-03-02T09:52:35;100118.03;;;11.43;61.61
82474;BME280;72350;53.232;6.556;2024-03-02T09:55:04;100119.53;;;11.39;62.12
82474;BME280;72350;53.232;6.556;2024-03-02T09:57:33;100110.13;;;11.33;61.18
82474;BME280;72350;53.232;6.556;2024-03-02T10:00:03;100114.66;;;11.48;60.64
82474;BME280;72350;53.232;6.556;2024-03-02T10:02:31;100118.09;;;11.56;60.62
82474;BME280;72350;53.232;6.556;2024-03-02T10:04:59;100112.22;;;11.25;59.77
82474;BME280;72350;53.232;6.556;2024-03-02T10:07:32;100118.25;;;11.07;59.55
82474;BME280;72350;53.232;6.556;2024-03-02T10:10:12;100120.34;;;10.98;60.70
82474;BME280;72350;53.232;6.556;2024-03-02T10:12:41;100115.75;;;10.77;61.07
82474;BME280;72350;53.232;6.556;2024-03-02T10:15:09;100123.34;;;11.03;61.16
82474;BME280;72350;53.232;6.556;2024-03-02T10:17:38;100116.56;;;11.06;61.64
82474;BME280;72350;53.232;6.556;2024-03-02T10:20:22;100125.78;;;10.91;61.18
82474;BME280;72350;53.232;6.556;2024-03-02T10:22:52;100119.03;;;10.94;61.62
82474;BME280;72350;53.232;6.556;2024-03-02T10:25:30;100109.63;;;10.82;62.04
82474;BME280;72350;53.232;6.556;2024-03-02T10:28:02;100117.22;;;11.08;61.76
82474;BME280;72350;53.232;6.556;2024-03-02T10:30:33;100113.88;;;11.19;61.05
82474;BME280;72350;53.232;6.556;2024-03-02T10:33:02;100117.97;;;11.30;60.93
82474;BME280;72350;53.232;6.556;2024-03-02T10:35:31;100118.22;;;11.35;60.00
82474;BME280;72350;53.232;6.556;2024-03-02T10:38:05;100105.25;;;11.29;59.34
82474;BME280;72350;53.232;6.556;2024-03-02T10:40:34;100109.81;;;11.08;59.66
82474;BME280;72350;53.232;6.556;2024-03-02T10:43:02;100107.16;;;10.93;60.12
82474;BME280;72350;53.232;6.556;2024-03-02T10:45:32;100104.28;;;11.08;59.97
82474;BME280;72350;53.232;6.556;2024-03-02T10:48:02;100102.44;;;11.15;60.47
82474;BME280;72350;53.232;6.556;2024-03-02T10:50:32;100110.47;;;11.10;59.69
82474;BME280;72350;53.232;6.556;2024-03-02T10:53:00;100114.38;;;11.29;59.34
82474;BME280;72350;53.232;6.556;2024-03-02T10:55:30;100108.63;;;11.31;59.73
82474;BME280;72350;53.232;6.556;2024-03-02T10:58:00;100110.94;;;11.21;59.12
82474;BME280;72350;53.232;6.556;2024-03-02T11:00:33;100113.34;;;11.37;58.85
82474;BME280;72350;53.232;6.556;2024-03-02T11:03:05;100115.81;;;11.25;59.06
82474;BME280;72350;53.232;6.556;2024-03-02T11:05:37;100116.34;;;11.42;59.15
82474;BME280;72350;53.232;6.556;2024-03-02T11:08:07;100113.88;;;11.19;59.14
82474;BME280;72350;53.232;6.556;2024-03-02T11:10:38;100121.53;;;10.89;58.28
82474;BME280;72350;53.232;6.556;2024-03-02T11:13:09;100116.00;;;10.82;59.23
82474;BME280;72350;53.232;6.556;2024-03-02T11:15:40;100113.25;;;10.89;59.25
82474;BME280;72350;53.232;6.556;2024-03-02T11:18:08;100113.09;;;10.97;59.69
82474;BME280;72350;53.232;6.556;2024-03-02T11:20:38;100107.72;;;11.17;59.41
82474;BME280;72350;53.232;6.556;2024-03-02T11:23:08;100113.31;;;11.30;59.37
82474;BME280;72350;53.232;6.556;2024-03-02T11:25:37;100112.03;;;11.26;59.47
82474;BME280;72350;53.232;6.556;2024-03-02T11:28:06;100113.59;;;11.07;57.61
82474;BME280;72350;53.232;6.556;2024-03-02T11:30:54;100107.47;;;11.05;57.76
82474;BME280;72350;53.232;6.556;2024-03-02T11:33:26;100107.69;;;11.10;56.73
82474;BME280;72350;53.232;6.556;2024-03-02T11:35:56;100110.31;;;11.25;58.11
82474;BME280;72350;53.232;6.556;2024-03-02T11:38:32;100104.00;;;11.31;58.02
82474;BME280;72350;53.232;6.556;2024-03-02T11:41:06;100095.75;;;11.38;58.26
82474;BME280;72350;53.232;6.556;2024-03-02T11:43:37;100099.00;;;11.55;58.67
82474;BME280;72350;53.232;6.556;2024-03-02T11:46:07;100096.63;;;11.45;57.33
82474;BME280;72350;53.232;6.556;2024-03-02T11:48:36;100101.72;;;11.48;57.11
82474;BME280;72350;53.232;6.556;2024-03-02T11:51:04;100099.91;;;11.21;57.32
82474;BME280;72350;53.232;6.556;2024-03-02T11:53:33;100092.59;;;11.48;57.72
82474;BME280;72350;53.232;6.556;2024-03-02T11:56:06;100090.47;;;11.43;57.35
82474;BME280;72350;53.232;6.556;2024-03-02T11:58:36;100091.16;;;11.52;55.66
82474;BME280;72350;53.232;6.556;2024-03-02T12:01:04;100089.81;;;11.41;54.45
82474;BME280;72350;53.232;6.556;2024-03-02T12:03:32;100087.31;;;11.53;55.20
82474;BME280;72350;53.232;6.556;2024-03-02T12:06:02;100084.81;;;11.65;54.05
82474;BME280;72350;53.232;6.556;2024-03-02T12:08:30;100088.63;;;11.64;54.91
82474;BME280;72350;53.232;6.556;2024-03-02T12:11:00;100088.81;;;11.62;58.64
82474;BME280;72350;53.232;6.556;2024-03-02T12:13:31;100080.97;;;11.59;53.25
82474;BME280;72350;53.232;6.556;2024-03-02T12:16:00;100088.16;;;11.53;53.60
82474;BME280;72350;53.232;6.556;2024-03-02T12:18:28;100092.47;;;11.63;54.17
82474;BME280;72350;53.232;6.556;2024-03-02T12:20:56;100081.84;;;11.59;54.15
82474;BME280;72350;53.232;6.556;2024-03-02T12:23:25;100093.81;;;11.38;53.91
82474;BME280;72350;53.232;6.556;2024-03-02T12:25:53;100090.50;;;11.56;54.80
82474;BME280;72350;53.232;6.556;2024-03-02T12:28:22;100085.19;;;11.48;53.97
82474;BME280;72350;53.232;6.556;2024-03-02T12:30:51;100087.81;;;11.76;54.07
82474;BME280;72350;53.232;6.556;2024-03-02T12:33:19;100084.50;;;11.94;54.08
82474;BME280;72350;53.232;6.556;2024-03-02T12:35:49;100094.81;;;11.66;53.67
82474;BME280;72350;53.232;6.556;2024-03-02T12:38:17;100090.97;;;11.67;53.97
82474;BME280;72350;53.232;6.556;2024-03-02T12:40:47;100097.81;;;11.29;54.10
82474;BME280;72350;53.232;6.556;2024-03-02T12:43:16;100102.44;;;11.22;55.31
82474;BME280;72350;53.232;6.556;2024-03-02T12:45:45;100092.97;;;11.31;55.86
82474;BME280;72350;53.232;6.556;2024-03-02T12:48:14;100100.28;;;11.18;55.20
82474;BME280;72350;53.232;6.556;2024-03-02T12:50:42;100094.16;;;11.15;55.59
82474;BME280;72350;53.232;6.556;2024-03-02T12:53:14;100101.84;;;11.33;56.18
82474;BME280;72350;53.232;6.556;2024-03-02T12:55:43;100095.69;;;11.25;56.12
82474;BME280;72350;53.232;6.556;2024-03-02T12:58:17;100100.22;;;11.46;55.47
82474;BME280;72350;53.232;6.556;2024-03-02T13:00:45;100103.59;;;11.34;55.24
82474;BME280;72350;53.232;6.556;2024-03-02T13:03:17;100100.22;;;11.46;55.62
82474;BME280;72350;53.232;6.556;2024-03-02T13:05:48;100096.31;;;11.75;54.73
82474;BME280;72350;53.232;6.556;2024-03-02T13:08:17;100090.88;;;11.88;54.02
82474;BME280;72350;53.232;6.556;2024-03-02T13:10:45;100096.63;;;11.93;53.67
82474;BME280;72350;53.232;6.556;2024-03-02T13:13:13;100089.59;;;11.97;54.47